Ocean Celebrity — HOSZ — position and weather

sailwx.info

Track history (hours):
 
Tides and Currents Weather Stations Pressure Air Temp Water Temp Dewpoint Dewpoint Depression Visibility Wind Speed Wind Dir Waves Ship Positions

Ocean Celebrity

Last reported at 2014-Aug-12 08:32 UTC. Time now 2014-Aug-31 06:33 UTC.
Position S 34°23' E 017°55'.
Warning: this ship's position is 18 days out of date.

Length 289 m; draft 8.8 m.

Type: Cargo ship. MMSI: 356712000.

Date/timePositionNaut miles runAvg speedWind from/ knotsBaromVisibWave heightAir tempDewpointWater temp
2014-Aug-12 08:32S 34°23' E 017°55'1813.1
2014-Aug-12 07:11S 34°29' E 018°15'813.2
2014-Aug-12 06:33S 34°32' E 018°24'1313.2
2014-Aug-12 05:33S 34°37' E 018°39'1313.1
2014-Aug-12 04:33S 34°42' E 018°54'1313.3
2014-Aug-12 03:33S 34°47' E 019°09'3213.2
2014-Aug-12 01:06S 34°58' E 019°46'912.7
2014-Aug-12 00:23S 35°02' E 019°56'1712.5
2014-Aug-11 23:04S 35°01' E 020°16'18212.5
2014-Aug-11 08:29S 34°31' E 023°55'11012.1
2014-Aug-10 23:25S 34°09' E 026°05'4314.2
2014-Aug-10 20:25S 34°01' E 026°55'3516.6
2014-Aug-10 18:18S 33°47' E 027°34'1716.5
2014-Aug-10 17:17S 33°40' E 027°52'  
Track history (hours):
 
Tides and Currents Weather Stations Pressure Air Temp Water Temp Dewpoint Dewpoint Depression Visibility Wind Speed Wind Dir Waves Ship Positions

Ocean Celebrity

Last reported at 2014-Aug-12 08:32 UTC. Time now 2014-Aug-31 06:33 UTC.
Position S 34°23' E 017°55'.
Warning: this ship's position is 18 days out of date.

Length 289 m; draft 8.8 m.

Type: Cargo ship. MMSI: 356712000.

Date/timePositionNaut miles runAvg speedWind from/ knotsBaromVisibWave heightAir tempDewpointWater temp
2014-Aug-12 08:32S 34°23' E 017°55'1813.1
2014-Aug-12 07:11S 34°29' E 018°15'813.2
2014-Aug-12 06:33S 34°32' E 018°24'1313.2
2014-Aug-12 05:33S 34°37' E 018°39'1313.1
2014-Aug-12 04:33S 34°42' E 018°54'1313.3
2014-Aug-12 03:33S 34°47' E 019°09'3213.2
2014-Aug-12 01:06S 34°58' E 019°46'912.7
2014-Aug-12 00:23S 35°02' E 019°56'1712.5
2014-Aug-11 23:04S 35°01' E 020°16'18212.5
2014-Aug-11 08:29S 34°31' E 023°55'11012.1
2014-Aug-10 23:25S 34°09' E 026°05'4314.2
2014-Aug-10 20:25S 34°01' E 026°55'3516.6
2014-Aug-10 18:18S 33°47' E 027°34'1716.5
2014-Aug-10 17:17S 33°40' E 027°52'  

Dump ship's entire track history